createdAt,value
2022-09-16T00:01:35.473Z,14.72
2022-09-16T00:06:36.968Z,14.74
2022-09-16T00:11:38.539Z,14.79
2022-09-16T00:16:40.187Z,14.77
2022-09-16T00:21:41.754Z,14.77
2022-09-16T00:26:43.650Z,14.64
2022-09-16T00:31:45.419Z,14.60
2022-09-16T00:36:47.004Z,14.54
2022-09-16T00:41:48.626Z,14.53
2022-09-16T00:46:50.318Z,14.45
2022-09-16T00:51:57.433Z,14.40
2022-09-16T00:57:00.837Z,14.40
2022-09-16T01:02:08.988Z,14.35
2022-09-16T01:07:10.741Z,14.44
2022-09-16T01:12:12.290Z,14.43
2022-09-16T01:17:42.373Z,14.52
2022-09-16T01:23:16.166Z,14.63
2022-09-16T01:28:44.895Z,14.68
2022-09-16T01:33:52.376Z,14.77
2022-09-16T01:39:15.931Z,14.79
2022-09-16T01:44:39.641Z,14.67
2022-09-16T01:49:46.130Z,14.64
2022-09-16T01:55:01.019Z,14.73
2022-09-16T02:00:09.515Z,14.86
2022-09-16T02:05:32.812Z,14.95
2022-09-16T02:10:57.324Z,15.06
2022-09-16T02:16:04.414Z,15.05
2022-09-16T02:21:10.624Z,14.96
2022-09-16T02:26:17.847Z,14.89
2022-09-16T02:31:27.286Z,14.87
2022-09-16T02:36:31.271Z,15.05
2022-09-16T02:41:32.902Z,15.07
2022-09-16T02:46:46.405Z,14.99
2022-09-16T02:52:27.324Z,14.92
2022-09-16T02:57:29.396Z,15.01
2022-09-16T03:02:33.377Z,14.98
2022-09-16T03:07:35.722Z,14.96
2022-09-16T03:12:58.436Z,14.98
2022-09-16T03:18:02.748Z,14.87
2022-09-16T03:23:26.236Z,14.52
2022-09-16T03:28:41.736Z,14.25
2022-09-16T03:33:51.164Z,14.19
2022-09-16T03:38:54.658Z,14.18
2022-09-16T03:44:03.562Z,14.14
2022-09-16T03:49:05.491Z,14.06
2022-09-16T03:54:07.008Z,14.09
2022-09-16T03:59:08.628Z,14.16
2022-09-16T04:04:10.231Z,14.19
2022-09-16T04:09:12.628Z,14.34
2022-09-16T04:14:14.335Z,14.48
2022-09-16T04:19:15.815Z,14.49
2022-09-16T04:24:17.593Z,14.53
2022-09-16T04:29:19.057Z,14.52
2022-09-16T04:34:20.560Z,14.54
2022-09-16T04:39:22.077Z,14.46
2022-09-16T04:44:23.643Z,14.43
2022-09-16T04:49:25.194Z,14.22
2022-09-16T04:54:26.743Z,14.15
2022-09-16T04:59:28.328Z,14.07
2022-09-16T05:04:29.849Z,13.99
2022-09-16T05:09:31.388Z,13.98
2022-09-16T05:14:33.035Z,13.91
2022-09-16T05:19:34.544Z,13.97
2022-09-16T05:24:36.066Z,14.12
2022-09-16T05:29:37.562Z,14.16
2022-09-16T05:34:39.156Z,14.18
2022-09-16T05:39:40.652Z,14.44
2022-09-16T05:44:42.388Z,14.64
2022-09-16T05:49:43.878Z,14.76
2022-09-16T05:54:45.448Z,14.83
2022-09-16T05:59:47.030Z,14.84
2022-09-16T06:04:48.743Z,14.81
2022-09-16T06:09:50.278Z,14.80
2022-09-16T06:14:51.933Z,14.86
2022-09-16T06:19:53.571Z,14.90
2022-09-16T06:24:55.165Z,14.83
2022-09-16T06:29:56.683Z,14.85
2022-09-16T06:34:58.346Z,15.12
2022-09-16T06:40:00.043Z,15.25
2022-09-16T06:45:01.567Z,15.29
2022-09-16T06:50:04.372Z,15.29
2022-09-16T06:55:06.423Z,15.20
2022-09-16T07:00:08.789Z,15.44
2022-09-16T07:05:10.304Z,15.58
2022-09-16T07:10:11.948Z,15.74
2022-09-16T07:15:16.333Z,15.73
2022-09-16T07:20:17.977Z,16.05
2022-09-16T07:25:19.603Z,15.87
2022-09-16T07:30:21.128Z,15.99
2022-09-16T07:35:23.044Z,16.23
2022-09-16T07:40:27.830Z,16.18
2022-09-16T07:45:31.337Z,16.58
2022-09-16T07:50:32.889Z,16.33
2022-09-16T07:55:35.377Z,16.26
2022-09-16T08:00:36.899Z,16.49
2022-09-16T08:05:38.527Z,16.28
2022-09-16T08:10:40.054Z,16.98
2022-09-16T08:15:41.634Z,17.60
2022-09-16T08:20:44.269Z,17.33
2022-09-16T08:25:46.121Z,16.73
2022-09-16T08:30:51.291Z,16.95
2022-09-16T08:36:02.862Z,17.18
2022-09-16T08:41:07.983Z,17.33
2022-09-16T08:46:27.192Z,17.69
2022-09-16T08:51:28.765Z,17.67
2022-09-16T08:56:33.784Z,17.60
2022-09-16T09:01:57.270Z,18.26
2022-09-16T09:07:17.590Z,19.89
2022-09-16T09:12:38.063Z,19.12
2022-09-16T09:18:16.151Z,19.04
2022-09-16T09:23:39.368Z,18.02
2022-09-16T09:29:21.366Z,19.57
2022-09-16T09:34:28.976Z,19.80
2022-09-16T09:39:52.361Z,20.32
2022-09-16T09:45:33.893Z,22.59
2022-09-16T09:50:41.907Z,20.20
2022-09-16T09:55:43.572Z,19.76
2022-09-16T10:00:45.344Z,18.91
2022-09-16T10:05:47.852Z,19.43
2022-09-16T10:10:55.210Z,18.45
2022-09-16T10:16:18.921Z,18.26
2022-09-16T10:21:20.784Z,19.63
2022-09-16T10:26:26.997Z,20.80
2022-09-16T10:31:47.232Z,19.98
2022-09-16T10:37:13.905Z,19.24
2022-09-16T10:42:21.634Z,19.86
2022-09-16T10:47:27.108Z,20.20
2022-09-16T10:52:30.665Z,20.35
2022-09-16T10:57:33.712Z,19.08
2022-09-16T11:03:12.744Z,18.65
2022-09-16T11:08:48.231Z,19.89
2022-09-16T11:14:22.137Z,19.87
2022-09-16T11:19:52.252Z,19.96
2022-09-16T11:25:28.910Z,21.29
2022-09-16T11:30:40.372Z,19.88
2022-09-16T11:36:11.135Z,20.61
2022-09-16T11:41:27.648Z,21.10
2022-09-16T11:46:56.353Z,21.44
2022-09-16T11:52:18.904Z,21.82
2022-09-16T11:57:29.650Z,21.72
2022-09-16T12:02:40.327Z,20.76
2022-09-16T12:08:14.163Z,20.67
2022-09-16T12:13:33.482Z,20.43
2022-09-16T12:18:52.432Z,19.38
2022-09-16T12:24:06.129Z,19.18
2022-09-16T12:29:22.633Z,18.16
2022-09-16T12:34:27.294Z,17.81
2022-09-16T12:39:28.819Z,17.68
2022-09-16T12:44:39.466Z,17.79
2022-09-16T12:49:49.781Z,16.41
2022-09-16T12:55:09.885Z,14.79
2022-09-16T13:00:18.595Z,13.17
2022-09-16T13:05:30.991Z,12.95
2022-09-16T13:10:55.870Z,13.25
2022-09-16T13:16:02.247Z,13.67
2022-09-16T13:21:29.777Z,14.46
2022-09-16T13:26:45.048Z,14.13
2022-09-16T13:31:48.268Z,14.01
2022-09-16T13:36:50.157Z,13.90
2022-09-16T13:41:51.699Z,13.84
2022-09-16T13:46:53.680Z,13.70
2022-09-16T13:51:55.317Z,13.68
2022-09-16T13:57:38.540Z,14.20
2022-09-16T14:03:18.248Z,14.87
2022-09-16T14:08:51.600Z,15.33
2022-09-16T14:14:05.520Z,15.23
2022-09-16T14:19:13.632Z,14.99
2022-09-16T14:24:16.468Z,16.49
2022-09-16T14:29:17.988Z,17.75
2022-09-16T14:34:28.762Z,17.66
2022-09-16T14:39:32.192Z,18.11
2022-09-16T14:44:37.935Z,17.87
2022-09-16T14:49:39.962Z,16.72
2022-09-16T14:54:44.138Z,16.25
2022-09-16T14:59:46.463Z,16.74
2022-09-16T15:04:53.984Z,16.51
2022-09-16T15:10:04.661Z,15.75
2022-09-16T15:15:27.629Z,15.88
2022-09-16T15:20:37.356Z,16.63
2022-09-16T15:25:38.924Z,17.39
2022-09-16T15:30:46.835Z,17.58
2022-09-16T15:35:49.514Z,17.50
2022-09-16T15:41:02.243Z,17.14
2022-09-16T15:46:17.823Z,16.91
2022-09-16T15:51:45.038Z,15.85
2022-09-16T15:56:56.555Z,15.53
2022-09-16T16:02:01.468Z,15.44
2022-09-16T16:07:08.952Z,15.30
2022-09-16T16:12:19.360Z,14.89
2022-09-16T16:17:21.914Z,14.73
2022-09-16T16:22:23.889Z,14.63
2022-09-16T16:27:26.025Z,14.78
2022-09-16T16:32:28.398Z,15.29
2022-09-16T16:37:46.847Z,15.07
2022-09-16T16:42:48.950Z,14.57
2022-09-16T16:47:50.463Z,14.56
2022-09-16T16:52:52.019Z,14.40
2022-09-16T16:57:53.530Z,14.46
2022-09-16T17:02:55.195Z,14.09
2022-09-16T17:07:56.747Z,13.91
2022-09-16T17:12:58.301Z,13.87
2022-09-16T17:17:59.973Z,13.75
2022-09-16T17:23:01.629Z,13.75
2022-09-16T17:28:03.137Z,13.72
2022-09-16T17:33:07.592Z,13.68
2022-09-16T17:38:10.232Z,13.52
2022-09-16T17:43:11.828Z,13.52
2022-09-16T17:48:13.348Z,13.42
2022-09-16T17:53:14.912Z,13.23
2022-09-16T17:58:16.849Z,13.13
2022-09-16T18:03:18.394Z,13.07
2022-09-16T18:08:20.010Z,13.05
2022-09-16T18:13:21.505Z,12.94
2022-09-16T18:18:23.035Z,12.96
2022-09-16T18:23:24.621Z,12.82
2022-09-16T18:28:26.163Z,12.73
2022-09-16T18:33:27.803Z,12.76
2022-09-16T18:38:30.528Z,12.70
2022-09-16T18:43:32.032Z,12.66
2022-09-16T18:48:33.559Z,12.61
2022-09-16T18:53:35.152Z,12.59
2022-09-16T18:58:36.672Z,12.49
2022-09-16T19:03:38.590Z,12.55
2022-09-16T19:08:40.178Z,12.56
2022-09-16T19:13:43.085Z,12.60
2022-09-16T19:18:44.726Z,12.58
2022-09-16T19:23:48.547Z,12.56
2022-09-16T19:28:50.161Z,12.51
2022-09-16T19:33:51.730Z,12.47
2022-09-16T19:38:54.423Z,12.44
2022-09-16T19:43:58.228Z,12.38
2022-09-16T19:48:59.888Z,12.49
2022-09-16T19:54:01.908Z,12.40
2022-09-16T19:59:03.505Z,12.47
2022-09-16T20:04:07.376Z,12.50
2022-09-16T20:09:10.980Z,12.54
2022-09-16T20:14:18.259Z,12.44
2022-09-16T20:19:20.677Z,12.42
2022-09-16T20:24:25.391Z,12.30
2022-09-16T20:29:26.895Z,12.22
2022-09-16T20:34:28.472Z,12.17
2022-09-16T20:39:30.008Z,12.07
2022-09-16T20:44:31.643Z,12.08
2022-09-16T20:49:33.129Z,12.04
2022-09-16T20:54:34.701Z,12.04
2022-09-16T20:59:36.197Z,12.01
2022-09-16T21:04:37.774Z,12.02
2022-09-16T21:09:39.270Z,11.95
2022-09-16T21:14:40.793Z,11.85
2022-09-16T21:19:42.310Z,11.87
2022-09-16T21:24:43.835Z,11.85
2022-09-16T21:29:45.414Z,11.87
2022-09-16T21:34:47.052Z,11.86
2022-09-16T21:39:48.746Z,11.84
2022-09-16T21:44:50.284Z,11.80
2022-09-16T21:49:51.815Z,11.78
2022-09-16T21:54:53.312Z,11.80
2022-09-16T21:59:54.801Z,11.82
2022-09-16T22:04:56.426Z,11.71
2022-09-16T22:09:58.005Z,11.72
2022-09-16T22:14:59.498Z,11.66
2022-09-16T22:20:01.138Z,11.62
2022-09-16T22:25:02.745Z,11.81
2022-09-16T22:30:04.558Z,11.83
2022-09-16T22:35:06.653Z,11.87
2022-09-16T22:40:08.562Z,11.93
2022-09-16T22:45:10.534Z,11.94
2022-09-16T22:50:12.108Z,11.91
2022-09-16T22:55:14.770Z,11.91
2022-09-16T23:00:16.424Z,11.79
2022-09-16T23:05:17.922Z,11.77
2022-09-16T23:10:19.422Z,11.82
2022-09-16T23:15:20.903Z,11.70
2022-09-16T23:20:22.395Z,11.71
2022-09-16T23:25:24.988Z,11.65
2022-09-16T23:30:26.606Z,11.64
2022-09-16T23:35:28.064Z,11.67
2022-09-16T23:40:29.846Z,11.70
2022-09-16T23:45:34.135Z,11.62
2022-09-16T23:50:35.646Z,11.70
2022-09-16T23:55:43.728Z,11.72
